sensor_id;sensor_type;location;lat;lon;timestamp;P1;durP1;ratioP1;P2;durP2;ratioP2
67514;SDS011;60646;55.802;37.032;2023-08-06T00:00:41;9.63;;;6.53;;
67514;SDS011;60646;55.802;37.032;2023-08-06T00:03:07;10.95;;;6.82;;
67514;SDS011;60646;55.802;37.032;2023-08-06T00:05:33;7.97;;;6.30;;
67514;SDS011;60646;55.802;37.032;2023-08-06T00:07:59;11.32;;;6.72;;
67514;SDS011;60646;55.802;37.032;2023-08-06T00:10:25;10.38;;;6.40;;
67514;SDS011;60646;55.802;37.032;2023-08-06T00:12:51;12.05;;;7.35;;
67514;SDS011;60646;55.802;37.032;2023-08-06T00:15:17;10.73;;;6.82;;
67514;SDS011;60646;55.802;37.032;2023-08-06T00:17:43;10.73;;;6.65;;
67514;SDS011;60646;55.802;37.032;2023-08-06T00:20:09;10.65;;;6.47;;
67514;SDS011;60646;55.802;37.032;2023-08-06T00:22:36;10.07;;;6.45;;
67514;SDS011;60646;55.802;37.032;2023-08-06T00:25:04;8.55;;;6.43;;
67514;SDS011;60646;55.802;37.032;2023-08-06T00:27:33;9.35;;;6.45;;
67514;SDS011;60646;55.802;37.032;2023-08-06T00:29:59;12.48;;;6.95;;
67514;SDS011;60646;55.802;37.032;2023-08-06T00:32:26;9.93;;;6.95;;
67514;SDS011;60646;55.802;37.032;2023-08-06T00:34:53;11.40;;;6.95;;
67514;SDS011;60646;55.802;37.032;2023-08-06T00:37:19;10.35;;;7.13;;
67514;SDS011;60646;55.802;37.032;2023-08-06T00:39:46;10.98;;;6.63;;
67514;SDS011;60646;55.802;37.032;2023-08-06T00:42:12;10.38;;;7.13;;
67514;SDS011;60646;55.802;37.032;2023-08-06T00:44:39;11.23;;;7.35;;
67514;SDS011;60646;55.802;37.032;2023-08-06T00:47:07;14.77;;;7.25;;
67514;SDS011;60646;55.802;37.032;2023-08-06T00:49:35;11.18;;;6.85;;
67514;SDS011;60646;55.802;37.032;2023-08-06T00:52:02;10.10;;;6.60;;
67514;SDS011;60646;55.802;37.032;2023-08-06T00:54:30;10.05;;;6.78;;
67514;SDS011;60646;55.802;37.032;2023-08-06T00:56:56;9.93;;;6.20;;
67514;SDS011;60646;55.802;37.032;2023-08-06T00:59:24;9.30;;;6.70;;
67514;SDS011;60646;55.802;37.032;2023-08-06T01:01:51;12.65;;;7.25;;
67514;SDS011;60646;55.802;37.032;2023-08-06T01:04:17;10.50;;;6.80;;
67514;SDS011;60646;55.802;37.032;2023-08-06T01:06:50;11.60;;;6.93;;
67514;SDS011;60646;55.802;37.032;2023-08-06T01:14:54;11.63;;;6.90;;
67514;SDS011;60646;55.802;37.032;2023-08-06T01:17:30;11.07;;;7.00;;
67514;SDS011;60646;55.802;37.032;2023-08-06T01:19:56;11.10;;;6.75;;
67514;SDS011;60646;55.802;37.032;2023-08-06T01:22:22;9.80;;;6.35;;
67514;SDS011;60646;55.802;37.032;2023-08-06T01:24:49;11.95;;;6.32;;
67514;SDS011;60646;55.802;37.032;2023-08-06T01:30:02;11.05;;;6.25;;
67514;SDS011;60646;55.802;37.032;2023-08-06T01:32:34;11.90;;;6.45;;
67514;SDS011;60646;55.802;37.032;2023-08-06T01:35:01;9.57;;;5.88;;
67514;SDS011;60646;55.802;37.032;2023-08-06T01:37:31;10.48;;;5.65;;
67514;SDS011;60646;55.802;37.032;2023-08-06T01:39:57;9.68;;;5.78;;
67514;SDS011;60646;55.802;37.032;2023-08-06T01:42:24;7.85;;;5.55;;
67514;SDS011;60646;55.802;37.032;2023-08-06T01:44:50;10.70;;;5.93;;
67514;SDS011;60646;55.802;37.032;2023-08-06T01:47:16;11.32;;;6.45;;
67514;SDS011;60646;55.802;37.032;2023-08-06T01:49:42;9.70;;;5.88;;
67514;SDS011;60646;55.802;37.032;2023-08-06T01:52:08;10.23;;;6.68;;
67514;SDS011;60646;55.802;37.032;2023-08-06T01:54:33;8.32;;;5.95;;
67514;SDS011;60646;55.802;37.032;2023-08-06T01:56:59;9.70;;;6.20;;
67514;SDS011;60646;55.802;37.032;2023-08-06T01:59:25;12.25;;;6.35;;
67514;SDS011;60646;55.802;37.032;2023-08-06T02:01:51;10.65;;;6.22;;
67514;SDS011;60646;55.802;37.032;2023-08-06T02:04:17;11.55;;;6.38;;
67514;SDS011;60646;55.802;37.032;2023-08-06T02:06:44;8.98;;;6.00;;
67514;SDS011;60646;55.802;37.032;2023-08-06T02:09:09;9.98;;;6.38;;
67514;SDS011;60646;55.802;37.032;2023-08-06T02:11:35;16.02;;;6.63;;
67514;SDS011;60646;55.802;37.032;2023-08-06T02:14:01;8.90;;;5.85;;
67514;SDS011;60646;55.802;37.032;2023-08-06T02:16:28;9.77;;;6.38;;
67514;SDS011;60646;55.802;37.032;2023-08-06T02:18:54;11.07;;;7.07;;
67514;SDS011;60646;55.802;37.032;2023-08-06T02:21:32;13.75;;;8.95;;
67514;SDS011;60646;55.802;37.032;2023-08-06T02:23:58;10.77;;;7.32;;
67514;SDS011;60646;55.802;37.032;2023-08-06T02:26:24;11.68;;;7.68;;
67514;SDS011;60646;55.802;37.032;2023-08-06T02:28:50;9.95;;;7.47;;
67514;SDS011;60646;55.802;37.032;2023-08-06T02:31:15;10.82;;;8.10;;
67514;SDS011;60646;55.802;37.032;2023-08-06T02:33:41;11.38;;;7.78;;
67514;SDS011;60646;55.802;37.032;2023-08-06T02:36:07;11.88;;;7.72;;
67514;SDS011;60646;55.802;37.032;2023-08-06T02:38:33;12.05;;;7.05;;
67514;SDS011;60646;55.802;37.032;2023-08-06T02:41:01;9.60;;;6.88;;
67514;SDS011;60646;55.802;37.032;2023-08-06T02:43:29;11.88;;;8.18;;
67514;SDS011;60646;55.802;37.032;2023-08-06T02:45:58;10.75;;;6.80;;
67514;SDS011;60646;55.802;37.032;2023-08-06T02:48:28;10.68;;;6.75;;
67514;SDS011;60646;55.802;37.032;2023-08-06T02:50:56;9.80;;;6.45;;
67514;SDS011;60646;55.802;37.032;2023-08-06T02:53:23;9.27;;;6.53;;
67514;SDS011;60646;55.802;37.032;2023-08-06T02:55:49;9.35;;;6.35;;
67514;SDS011;60646;55.802;37.032;2023-08-06T02:58:19;11.50;;;6.85;;
67514;SDS011;60646;55.802;37.032;2023-08-06T03:01:05;11.20;;;7.00;;
67514;SDS011;60646;55.802;37.032;2023-08-06T03:03:41;12.55;;;7.70;;
67514;SDS011;60646;55.802;37.032;2023-08-06T03:06:07;11.85;;;7.38;;
67514;SDS011;60646;55.802;37.032;2023-08-06T03:08:40;10.30;;;6.85;;
67514;SDS011;60646;55.802;37.032;2023-08-06T03:11:06;11.40;;;7.10;;
67514;SDS011;60646;55.802;37.032;2023-08-06T03:13:33;10.00;;;6.28;;
67514;SDS011;60646;55.802;37.032;2023-08-06T03:16:00;11.43;;;6.93;;
67514;SDS011;60646;55.802;37.032;2023-08-06T03:18:28;7.93;;;5.45;;
67514;SDS011;60646;55.802;37.032;2023-08-06T03:20:56;10.82;;;6.05;;
67514;SDS011;60646;55.802;37.032;2023-08-06T03:23:24;8.18;;;5.78;;
67514;SDS011;60646;55.802;37.032;2023-08-06T03:25:49;10.52;;;6.25;;
67514;SDS011;60646;55.802;37.032;2023-08-06T03:28:16;8.00;;;5.90;;
67514;SDS011;60646;55.802;37.032;2023-08-06T03:30:42;8.75;;;5.78;;
67514;SDS011;60646;55.802;37.032;2023-08-06T03:33:10;9.45;;;5.72;;
67514;SDS011;60646;55.802;37.032;2023-08-06T03:35:36;7.22;;;4.93;;
67514;SDS011;60646;55.802;37.032;2023-08-06T03:38:02;8.15;;;5.35;;
67514;SDS011;60646;55.802;37.032;2023-08-06T03:40:28;9.43;;;5.38;;
67514;SDS011;60646;55.802;37.032;2023-08-06T03:42:55;9.05;;;5.70;;
67514;SDS011;60646;55.802;37.032;2023-08-06T03:45:21;8.57;;;4.90;;
67514;SDS011;60646;55.802;37.032;2023-08-06T03:47:47;9.68;;;5.47;;
67514;SDS011;60646;55.802;37.032;2023-08-06T03:50:14;7.50;;;4.97;;
67514;SDS011;60646;55.802;37.032;2023-08-06T03:52:40;9.75;;;5.75;;
67514;SDS011;60646;55.802;37.032;2023-08-06T03:55:06;8.18;;;4.93;;
67514;SDS011;60646;55.802;37.032;2023-08-06T03:57:32;7.45;;;4.55;;
67514;SDS011;60646;55.802;37.032;2023-08-06T03:59:58;8.63;;;5.05;;
67514;SDS011;60646;55.802;37.032;2023-08-06T04:02:31;7.07;;;4.63;;
67514;SDS011;60646;55.802;37.032;2023-08-06T04:05:00;9.05;;;5.35;;
67514;SDS011;60646;55.802;37.032;2023-08-06T04:07:26;6.35;;;4.50;;
67514;SDS011;60646;55.802;37.032;2023-08-06T04:09:56;7.15;;;4.95;;
67514;SDS011;60646;55.802;37.032;2023-08-06T04:12:25;6.45;;;4.70;;
67514;SDS011;60646;55.802;37.032;2023-08-06T04:14:51;7.82;;;4.97;;
67514;SDS011;60646;55.802;37.032;2023-08-06T04:17:18;6.25;;;4.13;;
67514;SDS011;60646;55.802;37.032;2023-08-06T04:19:46;7.88;;;4.50;;
67514;SDS011;60646;55.802;37.032;2023-08-06T04:22:13;7.40;;;4.22;;
67514;SDS011;60646;55.802;37.032;2023-08-06T04:24:39;6.20;;;4.53;;
67514;SDS011;60646;55.802;37.032;2023-08-06T04:27:05;6.95;;;4.15;;
67514;SDS011;60646;55.802;37.032;2023-08-06T04:29:31;7.20;;;4.40;;
67514;SDS011;60646;55.802;37.032;2023-08-06T04:31:58;12.18;;;4.88;;
67514;SDS011;60646;55.802;37.032;2023-08-06T04:34:24;5.93;;;3.92;;
67514;SDS011;60646;55.802;37.032;2023-08-06T04:36:50;6.57;;;3.58;;
67514;SDS011;60646;55.802;37.032;2023-08-06T04:39:16;6.00;;;3.83;;
67514;SDS011;60646;55.802;37.032;2023-08-06T04:41:42;6.47;;;4.10;;
67514;SDS011;60646;55.802;37.032;2023-08-06T04:44:08;6.22;;;4.68;;
67514;SDS011;60646;55.802;37.032;2023-08-06T04:46:33;5.10;;;3.63;;
67514;SDS011;60646;55.802;37.032;2023-08-06T04:48:59;4.75;;;4.03;;
67514;SDS011;60646;55.802;37.032;2023-08-06T04:51:25;7.60;;;4.65;;
67514;SDS011;60646;55.802;37.032;2023-08-06T04:53:51;6.10;;;3.85;;
67514;SDS011;60646;55.802;37.032;2023-08-06T04:56:16;6.30;;;4.20;;
67514;SDS011;60646;55.802;37.032;2023-08-06T04:58:42;7.03;;;4.63;;
67514;SDS011;60646;55.802;37.032;2023-08-06T05:01:08;5.47;;;4.45;;
67514;SDS011;60646;55.802;37.032;2023-08-06T05:03:33;5.50;;;4.23;;
67514;SDS011;60646;55.802;37.032;2023-08-06T05:05:59;5.03;;;3.95;;
67514;SDS011;60646;55.802;37.032;2023-08-06T05:08:25;5.90;;;4.15;;
67514;SDS011;60646;55.802;37.032;2023-08-06T05:10:51;8.68;;;4.68;;
67514;SDS011;60646;55.802;37.032;2023-08-06T05:13:16;6.82;;;4.15;;
67514;SDS011;60646;55.802;37.032;2023-08-06T05:15:42;7.80;;;4.32;;
67514;SDS011;60646;55.802;37.032;2023-08-06T05:18:10;4.60;;;3.92;;
67514;SDS011;60646;55.802;37.032;2023-08-06T05:20:40;5.72;;;4.55;;
67514;SDS011;60646;55.802;37.032;2023-08-06T05:23:07;7.03;;;4.30;;
67514;SDS011;60646;55.802;37.032;2023-08-06T05:25:36;4.63;;;3.97;;
67514;SDS011;60646;55.802;37.032;2023-08-06T05:28:03;4.43;;;3.63;;
67514;SDS011;60646;55.802;37.032;2023-08-06T05:30:29;8.68;;;4.43;;
67514;SDS011;60646;55.802;37.032;2023-08-06T05:32:55;6.90;;;3.63;;
67514;SDS011;60646;55.802;37.032;2023-08-06T05:35:22;4.90;;;3.70;;
67514;SDS011;60646;55.802;37.032;2023-08-06T05:37:47;6.13;;;4.03;;
67514;SDS011;60646;55.802;37.032;2023-08-06T05:40:13;4.95;;;3.67;;
67514;SDS011;60646;55.802;37.032;2023-08-06T05:42:40;5.60;;;3.70;;
67514;SDS011;60646;55.802;37.032;2023-08-06T05:45:06;5.03;;;3.67;;
67514;SDS011;60646;55.802;37.032;2023-08-06T05:47:32;10.93;;;3.83;;
67514;SDS011;60646;55.802;37.032;2023-08-06T05:49:58;5.38;;;3.70;;
67514;SDS011;60646;55.802;37.032;2023-08-06T05:52:24;5.90;;;4.00;;
67514;SDS011;60646;55.802;37.032;2023-08-06T05:54:50;4.60;;;3.85;;
67514;SDS011;60646;55.802;37.032;2023-08-06T05:57:16;4.80;;;3.95;;
67514;SDS011;60646;55.802;37.032;2023-08-06T05:59:42;4.97;;;3.92;;
67514;SDS011;60646;55.802;37.032;2023-08-06T06:02:08;5.43;;;3.10;;
67514;SDS011;60646;55.802;37.032;2023-08-06T06:04:34;4.53;;;3.65;;
67514;SDS011;60646;55.802;37.032;2023-08-06T06:07:00;5.60;;;3.50;;
67514;SDS011;60646;55.802;37.032;2023-08-06T06:09:25;4.20;;;3.53;;
67514;SDS011;60646;55.802;37.032;2023-08-06T06:11:51;3.90;;;3.47;;
67514;SDS011;60646;55.802;37.032;2023-08-06T06:14:17;5.10;;;3.45;;
67514;SDS011;60646;55.802;37.032;2023-08-06T06:16:44;4.40;;;3.50;;
67514;SDS011;60646;55.802;37.032;2023-08-06T06:19:10;8.60;;;3.75;;
67514;SDS011;60646;55.802;37.032;2023-08-06T06:21:36;4.97;;;3.60;;
67514;SDS011;60646;55.802;37.032;2023-08-06T06:24:03;4.50;;;3.60;;
67514;SDS011;60646;55.802;37.032;2023-08-06T06:26:29;5.10;;;3.65;;
67514;SDS011;60646;55.802;37.032;2023-08-06T06:28:55;3.88;;;3.15;;
67514;SDS011;60646;55.802;37.032;2023-08-06T06:31:21;5.95;;;3.97;;
67514;SDS011;60646;55.802;37.032;2023-08-06T06:33:47;4.25;;;3.28;;
67514;SDS011;60646;55.802;37.032;2023-08-06T06:36:13;4.38;;;3.53;;
67514;SDS011;60646;55.802;37.032;2023-08-06T06:38:38;4.18;;;3.40;;
67514;SDS011;60646;55.802;37.032;2023-08-06T06:41:04;4.70;;;3.15;;
67514;SDS011;60646;55.802;37.032;2023-08-06T06:43:49;3.72;;;3.20;;
67514;SDS011;60646;55.802;37.032;2023-08-06T06:46:15;4.00;;;3.17;;
67514;SDS011;60646;55.802;37.032;2023-08-06T06:48:41;3.45;;;2.97;;
67514;SDS011;60646;55.802;37.032;2023-08-06T06:51:06;4.70;;;3.20;;
67514;SDS011;60646;55.802;37.032;2023-08-06T06:53:32;4.35;;;2.90;;
67514;SDS011;60646;55.802;37.032;2023-08-06T06:56:02;6.68;;;2.85;;
67514;SDS011;60646;55.802;37.032;2023-08-06T06:58:29;3.53;;;2.65;;
67514;SDS011;60646;55.802;37.032;2023-08-06T07:00:58;10.77;;;3.60;;
67514;SDS011;60646;55.802;37.032;2023-08-06T07:03:24;3.45;;;3.05;;
67514;SDS011;60646;55.802;37.032;2023-08-06T07:05:50;7.75;;;3.10;;
67514;SDS011;60646;55.802;37.032;2023-08-06T07:08:16;3.17;;;2.83;;
67514;SDS011;60646;55.802;37.032;2023-08-06T07:11:03;4.05;;;3.35;;
67514;SDS011;60646;55.802;37.032;2023-08-06T07:13:31;3.05;;;2.53;;
67514;SDS011;60646;55.802;37.032;2023-08-06T07:16:15;3.40;;;2.78;;
67514;SDS011;60646;55.802;37.032;2023-08-06T07:18:41;4.13;;;2.67;;
67514;SDS011;60646;55.802;37.032;2023-08-06T07:21:07;4.50;;;2.80;;
67514;SDS011;60646;55.802;37.032;2023-08-06T07:23:33;2.90;;;2.60;;
67514;SDS011;60646;55.802;37.032;2023-08-06T07:25:59;4.47;;;3.17;;
67514;SDS011;60646;55.802;37.032;2023-08-06T07:28:24;3.17;;;2.45;;
67514;SDS011;60646;55.802;37.032;2023-08-06T07:30:50;3.40;;;2.80;;
67514;SDS011;60646;55.802;37.032;2023-08-06T07:33:16;6.22;;;2.88;;
67514;SDS011;60646;55.802;37.032;2023-08-06T07:36:07;2.97;;;2.53;;
67514;SDS011;60646;55.802;37.032;2023-08-06T07:38:36;3.15;;;2.85;;
67514;SDS011;60646;55.802;37.032;2023-08-06T07:41:24;2.67;;;2.40;;
67514;SDS011;60646;55.802;37.032;2023-08-06T07:43:50;2.60;;;2.35;;
67514;SDS011;60646;55.802;37.032;2023-08-06T07:46:16;3.10;;;2.80;;
67514;SDS011;60646;55.802;37.032;2023-08-06T07:48:42;4.72;;;3.47;;
67514;SDS011;60646;55.802;37.032;2023-08-06T07:51:07;3.50;;;2.80;;
67514;SDS011;60646;55.802;37.032;2023-08-06T07:53:33;4.25;;;2.90;;
67514;SDS011;60646;55.802;37.032;2023-08-06T07:55:59;5.00;;;2.92;;
67514;SDS011;60646;55.802;37.032;2023-08-06T07:58:28;4.03;;;3.05;;
67514;SDS011;60646;55.802;37.032;2023-08-06T08:00:55;2.97;;;2.67;;
67514;SDS011;60646;55.802;37.032;2023-08-06T08:03:21;3.42;;;2.70;;
67514;SDS011;60646;55.802;37.032;2023-08-06T08:05:47;5.63;;;2.60;;
67514;SDS011;60646;55.802;37.032;2023-08-06T08:08:13;4.40;;;2.65;;
67514;SDS011;60646;55.802;37.032;2023-08-06T08:10:39;3.63;;;2.83;;
67514;SDS011;60646;55.802;37.032;2023-08-06T08:13:05;3.50;;;2.65;;
67514;SDS011;60646;55.802;37.032;2023-08-06T08:15:31;4.80;;;2.80;;
67514;SDS011;60646;55.802;37.032;2023-08-06T08:17:58;4.22;;;3.20;;
67514;SDS011;60646;55.802;37.032;2023-08-06T08:20:24;3.65;;;2.90;;
67514;SDS011;60646;55.802;37.032;2023-08-06T08:22:53;3.67;;;2.90;;
67514;SDS011;60646;55.802;37.032;2023-08-06T08:25:18;4.20;;;2.90;;
67514;SDS011;60646;55.802;37.032;2023-08-06T08:27:45;4.25;;;3.40;;
67514;SDS011;60646;55.802;37.032;2023-08-06T08:30:11;4.55;;;3.20;;
67514;SDS011;60646;55.802;37.032;2023-08-06T08:32:37;3.45;;;2.90;;
67514;SDS011;60646;55.802;37.032;2023-08-06T08:35:03;4.60;;;2.85;;
67514;SDS011;60646;55.802;37.032;2023-08-06T08:37:29;3.20;;;2.90;;
67514;SDS011;60646;55.802;37.032;2023-08-06T08:39:55;3.13;;;2.80;;
67514;SDS011;60646;55.802;37.032;2023-08-06T08:42:22;4.78;;;3.20;;
67514;SDS011;60646;55.802;37.032;2023-08-06T08:44:52;4.95;;;2.90;;
67514;SDS011;60646;55.802;37.032;2023-08-06T08:47:19;4.78;;;3.03;;
67514;SDS011;60646;55.802;37.032;2023-08-06T08:49:46;4.70;;;3.03;;
67514;SDS011;60646;55.802;37.032;2023-08-06T08:52:14;3.30;;;2.92;;
67514;SDS011;60646;55.802;37.032;2023-08-06T08:54:42;3.15;;;2.67;;
67514;SDS011;60646;55.802;37.032;2023-08-06T08:57:09;3.22;;;2.55;;
67514;SDS011;60646;55.802;37.032;2023-08-06T08:59:35;5.85;;;3.28;;
67514;SDS011;60646;55.802;37.032;2023-08-06T09:02:01;3.33;;;2.97;;
67514;SDS011;60646;55.802;37.032;2023-08-06T09:04:30;3.78;;;3.10;;
67514;SDS011;60646;55.802;37.032;2023-08-06T09:06:58;4.30;;;3.17;;
67514;SDS011;60646;55.802;37.032;2023-08-06T09:09:26;3.35;;;3.05;;
67514;SDS011;60646;55.802;37.032;2023-08-06T09:12:03;5.07;;;3.15;;
67514;SDS011;60646;55.802;37.032;2023-08-06T09:14:35;3.72;;;3.28;;
67514;SDS011;60646;55.802;37.032;2023-08-06T09:17:01;4.32;;;3.22;;
67514;SDS011;60646;55.802;37.032;2023-08-06T09:19:27;4.28;;;3.40;;
67514;SDS011;60646;55.802;37.032;2023-08-06T09:21:54;5.25;;;3.38;;
67514;SDS011;60646;55.802;37.032;2023-08-06T09:24:21;3.45;;;3.10;;
67514;SDS011;60646;55.802;37.032;2023-08-06T09:26:47;4.28;;;3.50;;
67514;SDS011;60646;55.802;37.032;2023-08-06T09:29:13;3.72;;;3.10;;
67514;SDS011;60646;55.802;37.032;2023-08-06T09:34:16;4.18;;;3.08;;
67514;SDS011;60646;55.802;37.032;2023-08-06T09:36:47;3.58;;;3.22;;
67514;SDS011;60646;55.802;37.032;2023-08-06T09:39:16;3.95;;;3.30;;
67514;SDS011;60646;55.802;37.032;2023-08-06T09:41:44;4.10;;;3.35;;
67514;SDS011;60646;55.802;37.032;2023-08-06T09:44:14;4.05;;;3.35;;
67514;SDS011;60646;55.802;37.032;2023-08-06T09:46:41;3.85;;;3.50;;
67514;SDS011;60646;55.802;37.032;2023-08-06T09:49:07;5.60;;;3.42;;
67514;SDS011;60646;55.802;37.032;2023-08-06T09:51:34;5.38;;;3.35;;
67514;SDS011;60646;55.802;37.032;2023-08-06T09:54:00;4.13;;;3.30;;
67514;SDS011;60646;55.802;37.032;2023-08-06T09:56:26;5.70;;;3.50;;
67514;SDS011;60646;55.802;37.032;2023-08-06T09:58:53;3.42;;;3.13;;
67514;SDS011;60646;55.802;37.032;2023-08-06T10:01:21;3.67;;;3.33;;
67514;SDS011;60646;55.802;37.032;2023-08-06T10:03:48;4.60;;;3.58;;
67514;SDS011;60646;55.802;37.032;2023-08-06T10:06:15;4.70;;;3.20;;
67514;SDS011;60646;55.802;37.032;2023-08-06T10:08:41;3.88;;;2.92;;
67514;SDS011;60646;55.802;37.032;2023-08-06T10:11:07;4.18;;;3.10;;
67514;SDS011;60646;55.802;37.032;2023-08-06T10:13:34;3.58;;;3.13;;
67514;SDS011;60646;55.802;37.032;2023-08-06T10:16:00;4.13;;;3.28;;
67514;SDS011;60646;55.802;37.032;2023-08-06T10:18:28;3.38;;;3.08;;
67514;SDS011;60646;55.802;37.032;2023-08-06T10:20:55;3.95;;;3.13;;
67514;SDS011;60646;55.802;37.032;2023-08-06T10:23:21;3.30;;;3.00;;
67514;SDS011;60646;55.802;37.032;2023-08-06T10:25:59;5.45;;;3.30;;
67514;SDS011;60646;55.802;37.032;2023-08-06T10:28:38;5.13;;;3.05;;
67514;SDS011;60646;55.802;37.032;2023-08-06T10:31:06;3.45;;;2.83;;
67514;SDS011;60646;55.802;37.032;2023-08-06T10:33:41;3.67;;;3.08;;
67514;SDS011;60646;55.802;37.032;2023-08-06T10:36:09;3.90;;;3.13;;
67514;SDS011;60646;55.802;37.032;2023-08-06T10:38:36;4.00;;;3.00;;
67514;SDS011;60646;55.802;37.032;2023-08-06T10:41:14;4.53;;;3.38;;
67514;SDS011;60646;55.802;37.032;2023-08-06T10:43:42;3.53;;;3.20;;
67514;SDS011;60646;55.802;37.032;2023-08-06T10:46:11;7.60;;;3.47;;
67514;SDS011;60646;55.802;37.032;2023-08-06T10:48:46;4.68;;;3.45;;
67514;SDS011;60646;55.802;37.032;2023-08-06T10:51:12;3.78;;;3.38;;
67514;SDS011;60646;55.802;37.032;2023-08-06T10:53:46;4.65;;;3.47;;
67514;SDS011;60646;55.802;37.032;2023-08-06T10:56:23;3.40;;;3.10;;
67514;SDS011;60646;55.802;37.032;2023-08-06T10:58:53;3.63;;;3.33;;
67514;SDS011;60646;55.802;37.032;2023-08-06T11:04:32;4.13;;;3.47;;
67514;SDS011;60646;55.802;37.032;2023-08-06T11:06:58;4.25;;;3.50;;
67514;SDS011;60646;55.802;37.032;2023-08-06T11:09:23;4.72;;;3.85;;
67514;SDS011;60646;55.802;37.032;2023-08-06T11:11:49;7.18;;;3.90;;
67514;SDS011;60646;55.802;37.032;2023-08-06T11:14:15;5.20;;;4.05;;
67514;SDS011;60646;55.802;37.032;2023-08-06T11:16:41;3.92;;;3.50;;
67514;SDS011;60646;55.802;37.032;2023-08-06T11:19:07;3.58;;;3.25;;
67514;SDS011;60646;55.802;37.032;2023-08-06T11:21:33;5.72;;;3.65;;
67514;SDS011;60646;55.802;37.032;2023-08-06T11:23:59;4.00;;;3.60;;
67514;SDS011;60646;55.802;37.032;2023-08-06T11:26:25;3.97;;;3.42;;
67514;SDS011;60646;55.802;37.032;2023-08-06T11:28:51;5.25;;;3.53;;
67514;SDS011;60646;55.802;37.032;2023-08-06T11:31:20;4.70;;;4.00;;
67514;SDS011;60646;55.802;37.032;2023-08-06T11:33:53;4.40;;;3.95;;
67514;SDS011;60646;55.802;37.032;2023-08-06T11:36:29;4.93;;;3.90;;
67514;SDS011;60646;55.802;37.032;2023-08-06T11:38:57;4.10;;;3.70;;
67514;SDS011;60646;55.802;37.032;2023-08-06T11:41:23;7.00;;;3.33;;
67514;SDS011;60646;55.802;37.032;2023-08-06T11:43:49;5.13;;;3.72;;
67514;SDS011;60646;55.802;37.032;2023-08-06T11:46:15;4.35;;;3.75;;
67514;SDS011;60646;55.802;37.032;2023-08-06T11:48:51;7.57;;;4.20;;
67514;SDS011;60646;55.802;37.032;2023-08-06T11:51:23;5.35;;;4.85;;
67514;SDS011;60646;55.802;37.032;2023-08-06T11:53:58;7.55;;;4.22;;
67514;SDS011;60646;55.802;37.032;2023-08-06T11:56:24;4.15;;;3.75;;
67514;SDS011;60646;55.802;37.032;2023-08-06T11:58:54;4.90;;;3.72;;
67514;SDS011;60646;55.802;37.032;2023-08-06T12:01:20;5.35;;;4.07;;
67514;SDS011;60646;55.802;37.032;2023-08-06T12:03:46;4.53;;;3.83;;
67514;SDS011;60646;55.802;37.032;2023-08-06T12:06:12;4.35;;;3.70;;
67514;SDS011;60646;55.802;37.032;2023-08-06T12:08:37;4.18;;;3.70;;
67514;SDS011;60646;55.802;37.032;2023-08-06T12:11:03;4.82;;;3.75;;
67514;SDS011;60646;55.802;37.032;2023-08-06T12:13:29;6.47;;;3.92;;
67514;SDS011;60646;55.802;37.032;2023-08-06T12:15:55;5.63;;;3.95;;
67514;SDS011;60646;55.802;37.032;2023-08-06T12:18:22;3.80;;;3.45;;
67514;SDS011;60646;55.802;37.032;2023-08-06T12:20:48;6.40;;;3.75;;
67514;SDS011;60646;55.802;37.032;2023-08-06T12:23:14;4.13;;;3.45;;
67514;SDS011;60646;55.802;37.032;2023-08-06T12:25:41;3.78;;;3.38;;
67514;SDS011;60646;55.802;37.032;2023-08-06T12:28:07;4.50;;;3.50;;
67514;SDS011;60646;55.802;37.032;2023-08-06T12:30:34;6.35;;;3.72;;
67514;SDS011;60646;55.802;37.032;2023-08-06T12:33:00;3.90;;;3.50;;
67514;SDS011;60646;55.802;37.032;2023-08-06T12:35:26;3.40;;;3.10;;
67514;SDS011;60646;55.802;37.032;2023-08-06T12:37:52;3.95;;;3.60;;
67514;SDS011;60646;55.802;37.032;2023-08-06T12:40:20;3.92;;;3.53;;
67514;SDS011;60646;55.802;37.032;2023-08-06T12:42:46;4.65;;;3.75;;
67514;SDS011;60646;55.802;37.032;2023-08-06T12:45:12;4.05;;;3.60;;
67514;SDS011;60646;55.802;37.032;2023-08-06T12:47:39;3.83;;;3.42;;
67514;SDS011;60646;55.802;37.032;2023-08-06T12:50:05;4.47;;;3.63;;
67514;SDS011;60646;55.802;37.032;2023-08-06T12:52:32;3.58;;;3.28;;
67514;SDS011;60646;55.802;37.032;2023-08-06T12:54:58;4.15;;;3.33;;
67514;SDS011;60646;55.802;37.032;2023-08-06T12:57:24;4.35;;;3.70;;
67514;SDS011;60646;55.802;37.032;2023-08-06T12:59:50;4.40;;;3.53;;
67514;SDS011;60646;55.802;37.032;2023-08-06T13:02:16;7.80;;;4.25;;
67514;SDS011;60646;55.802;37.032;2023-08-06T13:04:42;4.40;;;3.45;;
67514;SDS011;60646;55.802;37.032;2023-08-06T13:07:07;4.18;;;3.78;;
67514;SDS011;60646;55.802;37.032;2023-08-06T13:09:34;4.00;;;3.60;;
67514;SDS011;60646;55.802;37.032;2023-08-06T13:12:00;3.90;;;3.40;;
67514;SDS011;60646;55.802;37.032;2023-08-06T13:14:30;7.45;;;4.45;;
67514;SDS011;60646;55.802;37.032;2023-08-06T13:16:56;4.82;;;3.72;;
67514;SDS011;60646;55.802;37.032;2023-08-06T13:19:22;4.40;;;3.72;;
67514;SDS011;60646;55.802;37.032;2023-08-06T13:24:15;5.90;;;3.60;;
67514;SDS011;60646;55.802;37.032;2023-08-06T13:26:41;4.45;;;3.58;;
67514;SDS011;60646;55.802;37.032;2023-08-06T13:29:08;5.97;;;3.28;;
67514;SDS011;60646;55.802;37.032;2023-08-06T13:31:34;5.13;;;3.83;;
67514;SDS011;60646;55.802;37.032;2023-08-06T13:33:59;4.20;;;3.38;;
67514;SDS011;60646;55.802;37.032;2023-08-06T13:36:26;3.88;;;3.25;;
67514;SDS011;60646;55.802;37.032;2023-08-06T13:38:52;4.18;;;3.42;;
67514;SDS011;60646;55.802;37.032;2023-08-06T13:41:18;3.90;;;3.30;;
67514;SDS011;60646;55.802;37.032;2023-08-06T13:43:44;4.13;;;3.72;;
67514;SDS011;60646;55.802;37.032;2023-08-06T13:46:10;3.95;;;3.22;;
67514;SDS011;60646;55.802;37.032;2023-08-06T13:48:45;3.83;;;3.47;;
67514;SDS011;60646;55.802;37.032;2023-08-06T13:51:12;4.63;;;3.50;;
67514;SDS011;60646;55.802;37.032;2023-08-06T13:53:40;4.05;;;3.28;;
67514;SDS011;60646;55.802;37.032;2023-08-06T13:56:07;4.45;;;3.72;;
67514;SDS011;60646;55.802;37.032;2023-08-06T13:58:37;3.70;;;3.38;;
67514;SDS011;60646;55.802;37.032;2023-08-06T14:01:04;4.10;;;3.58;;
67514;SDS011;60646;55.802;37.032;2023-08-06T14:03:30;4.20;;;3.40;;
67514;SDS011;60646;55.802;37.032;2023-08-06T14:05:56;3.60;;;3.17;;
67514;SDS011;60646;55.802;37.032;2023-08-06T14:08:23;3.38;;;3.03;;
67514;SDS011;60646;55.802;37.032;2023-08-06T14:10:50;3.17;;;2.85;;
67514;SDS011;60646;55.802;37.032;2023-08-06T14:13:34;7.32;;;3.38;;
67514;SDS011;60646;55.802;37.032;2023-08-06T14:16:00;3.20;;;2.90;;
67514;SDS011;60646;55.802;37.032;2023-08-06T14:18:26;4.95;;;3.00;;
67514;SDS011;60646;55.802;37.032;2023-08-06T14:20:53;6.43;;;2.97;;
67514;SDS011;60646;55.802;37.032;2023-08-06T14:23:18;11.88;;;3.53;;
67514;SDS011;60646;55.802;37.032;2023-08-06T14:25:44;5.22;;;3.28;;
67514;SDS011;60646;55.802;37.032;2023-08-06T14:28:10;4.40;;;3.15;;
67514;SDS011;60646;55.802;37.032;2023-08-06T14:30:36;4.25;;;3.38;;
67514;SDS011;60646;55.802;37.032;2023-08-06T14:33:02;5.10;;;3.33;;
67514;SDS011;60646;55.802;37.032;2023-08-06T14:35:28;4.05;;;3.63;;
67514;SDS011;60646;55.802;37.032;2023-08-06T14:37:54;4.72;;;3.28;;
67514;SDS011;60646;55.802;37.032;2023-08-06T14:40:38;4.05;;;3.65;;
67514;SDS011;60646;55.802;37.032;2023-08-06T14:43:05;3.58;;;3.17;;
67514;SDS011;60646;55.802;37.032;2023-08-06T14:45:31;22.73;;;3.45;;
67514;SDS011;60646;55.802;37.032;2023-08-06T14:47:57;3.70;;;2.95;;
67514;SDS011;60646;55.802;37.032;2023-08-06T14:50:23;4.15;;;3.45;;